Capitol Logistics 2140

Operating for AJT



TJSJ
Luis Munoz Marin International Airport
San Juan, PR
KMIA
Miami International Airport
Miami, US

Activity Log

Date Flight Route Aircraft Duration
04/17/2021 CPX2140 ACONY3 PALDE FEKKO Y308 FOWEE FLIPR7 B763 2h 50m
10/12/2019 CPX238 ACONY3 PALDE FEKKO Y308 FOWEE FLIPR6 B763 2h 48m
06/19/2019 CPX238 ACONY3 PALDE FEKKO Y308 FOWEE FLIPR6 B763 2h 33m
06/06/2019 CPX238 ACONY3 PALDE FEKKO Y308 FOWEE FLIPR6 B763 2h 20m
04/06/2019 CPX238 ACONY3 PALDE FEKKO Y308 FOWEE FLIPR6 B763 2h 50m
02/17/2019 CPX238 ACONY3 PALDE FEKKO Y308 FOWEE FLIPR6 B763 2h 41m

Route Details

Aircraft Information
Primary: Boeing 767-300BDSF
Backup: Airbus A300-600F
Route Data
Distance: 909nm
Duration: 2h 20m
Recm'd Route: ACONY3 PALDE FEKKO Y308 FOWEE FLIPR7
Origin Wx: TJSJ 020556Z 10006KT 10SM FEW029 26/23 A3006 RMK AO2 SLP175 T02610228 10278 20261 58017
Dest. Wx: KMIA 020553Z 00000KT 10SM FEW028 FEW250 29/25 A3006 RMK AO2 SLP179 OCNL LTGIC DSNT E-SE CB DSNT E-SE MOV N 60000 T02890250 10306 20289 58010 $
Notes: